createdAt,value
2018-08-19T00:57:08.959Z,17.17
2018-08-19T00:59:38.430Z,18.23
2018-08-19T01:02:07.120Z,16.37
2018-08-19T01:04:35.962Z,15.80
2018-08-19T01:07:04.506Z,16.33
2018-08-19T01:09:33.058Z,16.20
2018-08-19T01:12:01.549Z,16.97
2018-08-19T01:14:31.551Z,17.00
2018-08-19T01:17:00.210Z,15.93
2018-08-19T01:19:29.048Z,16.20
2018-08-19T01:21:57.980Z,16.03
2018-08-19T01:24:26.526Z,16.23
2018-08-19T01:26:56.505Z,17.43
2018-08-19T01:29:35.979Z,15.97
2018-08-19T01:32:13.684Z,16.57
2018-08-19T01:34:45.804Z,15.73
2018-08-19T01:37:15.564Z,17.00
2018-08-19T01:39:44.379Z,16.73
2018-08-19T01:42:12.847Z,15.70
2018-08-19T01:44:42.682Z,16.20
2018-08-19T01:47:11.596Z,16.87
2018-08-19T01:49:40.049Z,16.33
2018-08-19T01:52:08.800Z,17.73
2018-08-19T01:54:37.474Z,17.30
2018-08-19T01:57:06.131Z,16.57
2018-08-19T01:59:35.779Z,16.87
2018-08-19T02:02:06.747Z,16.87
2018-08-19T02:04:41.186Z,17.73
2018-08-19T02:07:10.561Z,17.13
2018-08-19T02:09:53.284Z,16.07
2018-08-19T02:12:22.212Z,16.87
2018-08-19T02:14:51.224Z,18.87
2018-08-19T02:17:19.861Z,17.53
2018-08-19T02:19:48.528Z,17.77
2018-08-19T02:22:17.210Z,16.77
2018-08-19T02:24:46.421Z,16.60
2018-08-19T02:27:15.035Z,17.20
2018-08-19T02:29:43.542Z,16.50
2018-08-19T02:32:12.048Z,17.33
2018-08-19T02:34:43.356Z,16.73
2018-08-19T02:37:14.152Z,16.97
2018-08-19T02:39:44.574Z,17.13
2018-08-19T02:42:26.420Z,17.50
2018-08-19T02:45:07.131Z,17.10
2018-08-19T02:47:36.761Z,17.73
2018-08-19T02:50:06.568Z,17.50
2018-08-19T02:52:37.211Z,17.87
2018-08-19T02:55:07.546Z,17.80
2018-08-19T02:57:39.147Z,18.10
2018-08-19T03:00:10.410Z,18.50
2018-08-19T03:02:40.213Z,18.80
2018-08-19T03:05:14.597Z,18.27
2018-08-19T03:07:43.685Z,18.63
2018-08-19T03:10:13.444Z,18.60
2018-08-19T03:12:43.748Z,19.27
2018-08-19T03:15:14.550Z,18.00
2018-08-19T03:17:46.457Z,19.60
2018-08-19T03:20:14.888Z,18.07
2018-08-19T03:22:44.156Z,19.20
2018-08-19T03:25:14.097Z,19.30
2018-08-19T03:27:42.489Z,19.53
2018-08-19T03:30:12.520Z,19.20
2018-08-19T03:32:46.943Z,20.27
2018-08-19T03:35:16.566Z,18.90
2018-08-19T03:37:45.385Z,19.17
2018-08-19T03:40:14.233Z,19.37
2018-08-19T03:42:43.020Z,20.23
2018-08-19T03:45:17.400Z,20.13
2018-08-19T03:47:46.617Z,19.50
2018-08-19T03:50:20.942Z,19.40
2018-08-19T03:52:50.496Z,19.47
2018-08-19T03:55:24.534Z,20.10
2018-08-19T03:57:55.141Z,19.87
2018-08-19T04:00:23.631Z,20.43
2018-08-19T04:02:52.027Z,20.97
2018-08-19T04:05:29.399Z,20.17
2018-08-19T04:07:58.592Z,20.47
2018-08-19T04:10:27.416Z,21.40
2018-08-19T04:12:55.846Z,20.20
2018-08-19T04:15:25.051Z,19.80
2018-08-19T04:17:53.755Z,20.33
2018-08-19T04:20:22.131Z,21.50
2018-08-19T04:22:50.721Z,21.90
2018-08-19T04:25:23.780Z,21.77
2018-08-19T04:27:52.198Z,21.20
2018-08-19T04:30:20.570Z,22.37
2018-08-19T04:32:49.429Z,20.97
2018-08-19T04:35:18.416Z,21.50
2018-08-19T04:37:47.517Z,21.53
2018-08-19T04:40:15.964Z,20.40
2018-08-19T04:42:44.404Z,21.10
2018-08-19T04:45:12.890Z,21.30
2018-08-19T04:47:41.287Z,21.43
2018-08-19T04:50:09.771Z,20.17
2018-08-19T04:52:38.158Z,19.67
2018-08-19T04:55:07.021Z,22.00
2018-08-19T04:57:35.420Z,19.43
2018-08-19T05:00:03.987Z,19.63
2018-08-19T05:02:32.454Z,19.70
2018-08-19T05:05:01.598Z,19.43
2018-08-19T05:07:30.036Z,21.13
2018-08-19T05:09:59.054Z,20.40
2018-08-19T05:12:27.475Z,18.73
2018-08-19T05:14:56.033Z,19.23
2018-08-19T05:17:25.664Z,18.37
2018-08-19T05:20:03.271Z,18.40
2018-08-19T05:22:35.354Z,18.83
2018-08-19T05:25:04.614Z,19.07
2018-08-19T05:27:33.268Z,17.80
2018-08-19T05:30:01.706Z,17.50
2018-08-19T05:32:30.146Z,18.70
2018-08-19T05:34:58.697Z,17.90
2018-08-19T05:37:28.245Z,17.73
2018-08-19T05:39:59.814Z,17.47
2018-08-19T05:42:28.448Z,17.77
2018-08-19T05:44:57.395Z,19.47
2018-08-19T05:47:26.015Z,17.73
2018-08-19T05:49:55.151Z,18.80
2018-08-19T05:52:24.470Z,17.87
2018-08-19T05:54:57.069Z,19.13
2018-08-19T05:57:26.145Z,20.50
2018-08-19T05:59:55.100Z,19.80
2018-08-19T06:02:32.352Z,19.10
2018-08-19T06:05:02.249Z,19.83
2018-08-19T06:07:31.354Z,19.07
2018-08-19T06:09:59.979Z,20.93
2018-08-19T06:12:28.530Z,17.70
2018-08-19T06:14:59.724Z,15.87
2018-08-19T06:17:28.598Z,14.43
2018-08-19T06:19:57.180Z,14.60
2018-08-19T06:22:31.135Z,14.43
2018-08-19T06:25:00.006Z,14.80
2018-08-19T06:27:35.157Z,14.17
2018-08-19T06:30:04.103Z,14.17
2018-08-19T06:32:33.737Z,12.40
2018-08-19T06:35:02.353Z,13.37
2018-08-19T06:37:30.809Z,12.40
2018-08-19T06:40:00.695Z,13.10
2018-08-19T06:42:29.072Z,13.20
2018-08-19T06:44:58.594Z,12.13
2018-08-19T06:47:28.038Z,12.17
2018-08-19T06:49:58.223Z,12.20
2018-08-19T06:52:27.141Z,10.97
2018-08-19T06:54:56.496Z,12.77
2018-08-19T06:57:28.520Z,11.73
2018-08-19T06:59:57.247Z,11.17
2018-08-19T07:02:26.124Z,12.43
2018-08-19T07:04:57.614Z,11.95
2018-08-19T07:07:26.050Z,11.22
2018-08-19T07:09:54.996Z,11.48
2018-08-19T07:12:23.949Z,11.53
2018-08-19T07:14:52.655Z,11.48
2018-08-19T07:17:22.041Z,13.98
2018-08-19T07:19:50.441Z,12.82
2018-08-19T07:22:20.278Z,10.95
2018-08-19T07:24:48.889Z,11.50
2018-08-19T07:27:17.709Z,11.03
2018-08-19T07:29:46.203Z,10.90
2018-08-19T07:32:15.122Z,10.72
2018-08-19T07:34:43.933Z,10.13
2018-08-19T07:37:12.424Z,9.60
2018-08-19T07:39:47.136Z,10.45
2018-08-19T07:42:15.759Z,10.53
2018-08-19T07:44:44.356Z,10.18
2018-08-19T07:47:12.821Z,10.88
2018-08-19T07:49:41.218Z,10.28
2018-08-19T07:52:09.900Z,10.23
2018-08-19T07:54:38.640Z,10.35
2018-08-19T07:57:16.242Z,11.30
2018-08-19T07:59:47.448Z,10.20
2018-08-19T08:02:16.203Z,9.53
2018-08-19T08:04:45.365Z,10.78
2018-08-19T08:07:14.791Z,11.38
2018-08-19T08:09:43.494Z,9.75
2018-08-19T08:12:13.837Z,9.88
2018-08-19T08:14:49.748Z,9.65
2018-08-19T08:17:18.567Z,9.90
2018-08-19T08:19:52.437Z,9.88
2018-08-19T08:22:21.863Z,10.32
2018-08-19T08:24:50.542Z,9.85
2018-08-19T08:27:18.972Z,10.30
2018-08-19T08:29:48.365Z,9.05
2018-08-19T08:32:16.798Z,10.63
2018-08-19T08:34:46.142Z,10.32
2018-08-19T08:37:14.988Z,9.25
2018-08-19T08:39:43.431Z,11.05
2018-08-19T08:42:12.097Z,8.95
2018-08-19T08:44:40.691Z,8.18
2018-08-19T08:47:11.594Z,8.23
2018-08-19T08:49:45.280Z,8.25
2018-08-19T08:52:19.448Z,8.90
2018-08-19T08:54:54.600Z,7.53
2018-08-19T08:57:25.380Z,8.95
2018-08-19T08:59:54.260Z,8.75
2018-08-19T09:02:23.664Z,7.45
2018-08-19T09:04:53.338Z,8.25
2018-08-19T09:07:21.865Z,7.92
2018-08-19T09:09:50.827Z,7.75
2018-08-19T09:12:31.017Z,7.87
2018-08-19T09:14:59.578Z,8.70
2018-08-19T09:17:28.173Z,7.25
2018-08-19T09:19:56.680Z,7.55
2018-08-19T09:22:25.763Z,8.83
2018-08-19T09:24:54.424Z,7.75
2018-08-19T09:27:23.388Z,5.90
2018-08-19T09:29:52.072Z,6.03
2018-08-19T09:32:21.232Z,7.20
2018-08-19T09:34:49.987Z,8.18
2018-08-19T09:37:18.592Z,6.87
2018-08-19T09:39:47.780Z,6.70
2018-08-19T09:42:16.544Z,5.83
2018-08-19T09:44:45.809Z,6.65
2018-08-19T09:47:14.288Z,7.00
2018-08-19T09:49:43.268Z,7.42
2018-08-19T09:52:12.055Z,7.60
2018-08-19T09:54:40.947Z,8.25
2018-08-19T09:57:09.629Z,5.90
2018-08-19T09:59:38.190Z,7.20
2018-08-19T10:02:09.461Z,6.25
2018-08-19T10:04:37.950Z,9.20
2018-08-19T10:07:10.929Z,5.60
2018-08-19T10:09:40.081Z,5.28
2018-08-19T10:12:09.440Z,5.37
2018-08-19T10:14:38.039Z,5.15
2018-08-19T10:17:06.945Z,7.80
2018-08-19T10:19:35.444Z,7.00
2018-08-19T10:22:04.304Z,5.17
2018-08-19T10:24:33.768Z,5.55
2018-08-19T10:27:05.733Z,6.05
2018-08-19T10:29:34.130Z,6.40
2018-08-19T10:32:03.614Z,5.58
2018-08-19T10:34:34.884Z,6.22
2018-08-19T10:37:04.036Z,7.75
2018-08-19T10:39:34.123Z,4.55
2018-08-19T10:42:16.877Z,7.45
2018-08-19T10:44:47.051Z,8.28
2018-08-19T10:47:16.195Z,8.38
2018-08-19T10:49:52.474Z,5.65
2018-08-19T10:52:25.945Z,4.45
2018-08-19T10:54:55.686Z,5.35
2018-08-19T10:57:24.269Z,6.20
2018-08-19T10:59:55.384Z,5.08
2018-08-19T11:02:24.194Z,7.35
2018-08-19T11:04:56.101Z,7.05
2018-08-19T11:07:24.728Z,5.47
2018-08-19T11:10:10.238Z,7.72
2018-08-19T11:12:38.892Z,6.33
2018-08-19T11:16:11.505Z,7.60
2018-08-19T11:18:43.328Z,5.77
2018-08-19T11:21:20.548Z,5.40
2018-08-19T11:23:49.105Z,9.63
2018-08-19T11:26:17.950Z,5.30
2018-08-19T11:28:48.980Z,4.90
2018-08-19T11:31:25.477Z,4.93
2018-08-19T11:33:58.174Z,4.80
2018-08-19T11:36:32.958Z,5.53
2018-08-19T11:39:02.780Z,6.53
2018-08-19T11:41:33.294Z,6.07
2018-08-19T11:44:07.076Z,5.87
2018-08-19T11:46:35.831Z,7.07
2018-08-19T11:49:17.875Z,5.70
2018-08-19T11:51:51.125Z,8.13
2018-08-19T11:54:21.385Z,7.20
2018-08-19T11:57:00.113Z,6.63
2018-08-19T11:59:34.167Z,6.23
2018-08-19T12:02:02.741Z,9.50
2018-08-19T12:04:32.101Z,6.30
2018-08-19T12:07:00.945Z,6.13
2018-08-19T12:09:29.386Z,5.47
2018-08-19T12:11:59.103Z,4.07
2018-08-19T12:14:27.766Z,4.43
2018-08-19T12:16:58.085Z,3.77
2018-08-19T12:19:27.861Z,5.63
2018-08-19T12:21:58.712Z,5.43
2018-08-19T12:24:32.097Z,3.30
2018-08-19T12:27:02.143Z,4.47
2018-08-19T12:29:31.931Z,4.77
2018-08-19T12:32:09.941Z,4.50
2018-08-19T12:34:46.804Z,5.37
2018-08-19T12:37:17.155Z,5.43
2018-08-19T12:39:46.129Z,4.87
2018-08-19T12:42:14.924Z,4.63
2018-08-19T12:44:44.654Z,4.93
2018-08-19T12:47:15.971Z,4.43
2018-08-19T12:49:46.133Z,5.23
2018-08-19T12:52:16.811Z,4.80
2018-08-19T12:54:47.164Z,4.27
2018-08-19T12:57:15.748Z,5.20
2018-08-19T12:59:45.345Z,6.43
2018-08-19T13:02:13.793Z,6.47
2018-08-19T13:04:42.574Z,5.57
2018-08-19T13:07:12.848Z,5.37
2018-08-19T13:09:41.815Z,6.77
2018-08-19T13:12:11.788Z,6.00
2018-08-19T13:14:40.655Z,8.03
2018-08-19T13:17:10.636Z,5.77
2018-08-19T13:19:40.240Z,4.73
2018-08-19T13:22:08.669Z,4.57
2018-08-19T13:24:39.092Z,5.83
2018-08-19T13:27:09.816Z,6.10
2018-08-19T13:29:38.705Z,5.27
2018-08-19T13:32:07.119Z,4.87
2018-08-19T13:34:35.852Z,5.57
2018-08-19T13:37:04.795Z,5.03
2018-08-19T13:39:34.087Z,4.17
2018-08-19T13:42:02.518Z,4.10
2018-08-19T13:44:30.961Z,5.13
2018-08-19T13:46:59.730Z,7.10
2018-08-19T13:49:29.092Z,4.93
2018-08-19T13:52:01.601Z,5.47
2018-08-19T13:54:31.224Z,4.50
2018-08-19T13:56:59.635Z,5.13
2018-08-19T13:59:28.973Z,6.17
2018-08-19T14:01:57.605Z,3.93
2018-08-19T14:04:26.081Z,6.63
2018-08-19T14:06:54.619Z,3.90
2018-08-19T14:09:23.527Z,3.87
2018-08-19T14:11:51.947Z,4.57
2018-08-19T14:14:20.560Z,6.13
2018-08-19T14:16:49.321Z,5.33
2018-08-19T14:19:19.484Z,4.30
2018-08-19T14:21:48.029Z,4.10
2018-08-19T14:24:17.015Z,4.63
2018-08-19T14:26:46.079Z,5.60
2018-08-19T14:29:14.801Z,4.10
2018-08-19T14:31:44.263Z,4.77
2018-08-19T14:34:12.733Z,5.27
2018-08-19T14:36:41.577Z,5.33
2018-08-19T14:39:10.192Z,6.80
2018-08-19T14:41:38.776Z,4.13
2018-08-19T14:44:07.881Z,4.73
2018-08-19T14:46:36.320Z,4.50
2018-08-19T14:49:06.028Z,4.07
2018-08-19T14:51:55.936Z,5.30
2018-08-19T14:54:24.540Z,6.43
2018-08-19T14:56:53.311Z,5.43
2018-08-19T14:59:21.766Z,6.37
2018-08-19T15:01:50.583Z,4.57
2018-08-19T15:04:19.921Z,4.30
2018-08-19T15:06:48.853Z,4.83
2018-08-19T15:09:24.154Z,6.77
2018-08-19T15:11:53.940Z,7.33
2018-08-19T15:14:22.589Z,4.17
2018-08-19T15:16:52.935Z,4.87
2018-08-19T15:19:22.044Z,4.63
2018-08-19T15:21:55.552Z,5.40
2018-08-19T15:24:24.701Z,4.80
2018-08-19T15:26:53.101Z,4.20
2018-08-19T15:29:28.854Z,4.80
2018-08-19T15:31:58.644Z,6.03
2018-08-19T15:34:26.986Z,5.33
2018-08-19T15:36:55.810Z,3.93
2018-08-19T15:39:24.557Z,5.77
2018-08-19T15:41:53.106Z,4.43
2018-08-19T15:44:21.669Z,5.07
2018-08-19T15:46:50.143Z,6.03
2018-08-19T15:49:21.232Z,3.90
2018-08-19T15:51:50.534Z,3.97
2018-08-19T15:54:19.398Z,5.17
2018-08-19T15:56:48.293Z,5.63
2018-08-19T15:59:16.720Z,5.60
2018-08-19T16:01:45.656Z,4.33
2018-08-19T16:04:17.403Z,4.13
2018-08-19T16:06:51.580Z,4.20
2018-08-19T16:09:21.362Z,6.63
2018-08-19T16:11:50.929Z,4.77
2018-08-19T16:14:27.299Z,4.43
2018-08-19T16:16:57.272Z,5.70
2018-08-19T16:19:26.677Z,4.70
2018-08-19T16:21:56.519Z,5.90
2018-08-19T16:24:25.551Z,3.87
2018-08-19T16:26:54.280Z,5.30
2018-08-19T16:29:22.928Z,5.23
2018-08-19T16:31:51.778Z,5.27
2018-08-19T16:34:20.679Z,5.30
2018-08-19T16:36:49.924Z,7.13
2018-08-19T16:39:19.315Z,4.47
2018-08-19T16:41:48.594Z,4.00
2018-08-19T16:44:17.774Z,5.40
2018-08-19T16:46:46.302Z,5.30
2018-08-19T16:49:14.935Z,4.83
2018-08-19T16:51:43.857Z,6.57
2018-08-19T16:54:12.333Z,6.93
2018-08-19T16:56:40.858Z,5.53
2018-08-19T16:59:09.444Z,4.67
2018-08-19T17:01:38.372Z,6.40
2018-08-19T17:04:06.778Z,5.93
2018-08-19T17:06:38.077Z,4.80
2018-08-19T17:09:08.354Z,6.63
2018-08-19T17:11:36.761Z,5.73
2018-08-19T17:14:05.661Z,8.10
2018-08-19T17:16:34.411Z,4.70
2018-08-19T17:19:03.071Z,4.10
2018-08-19T17:21:31.816Z,5.37
2018-08-19T17:24:00.876Z,10.13
2018-08-19T17:26:29.628Z,6.93
2018-08-19T17:29:04.387Z,6.10
2018-08-19T17:31:32.973Z,6.63
2018-08-19T17:34:01.413Z,7.30
2018-08-19T17:36:34.986Z,4.27
2018-08-19T17:39:03.787Z,6.13
2018-08-19T17:41:32.226Z,4.83
2018-08-19T17:44:03.805Z,5.67
2018-08-19T17:46:32.398Z,5.27
2018-08-19T17:49:00.869Z,4.73
2018-08-19T17:51:32.090Z,8.60
2018-08-19T17:54:00.739Z,4.20
2018-08-19T17:56:29.298Z,4.83
2018-08-19T17:58:57.784Z,5.03
2018-08-19T18:01:26.949Z,5.10
2018-08-19T18:03:55.428Z,8.10
2018-08-19T18:06:23.945Z,7.80
2018-08-19T18:08:53.376Z,5.83
2018-08-19T18:11:24.232Z,4.90
2018-08-19T18:13:53.001Z,5.20
2018-08-19T18:16:21.519Z,6.80
2018-08-19T18:18:50.169Z,5.53
2018-08-19T18:21:19.253Z,8.77
2018-08-19T18:23:49.013Z,10.63
2018-08-19T18:26:17.510Z,10.87
2018-08-19T18:28:47.880Z,8.73
2018-08-19T18:31:20.062Z,9.27
2018-08-19T18:33:54.855Z,11.37
2018-08-19T18:36:25.258Z,8.40
2018-08-19T18:38:53.944Z,11.60
2018-08-19T18:41:28.705Z,7.50
2018-08-19T18:43:58.733Z,8.37
2018-08-19T18:46:28.254Z,10.13
2018-08-19T18:49:13.349Z,10.63
2018-08-19T18:51:50.612Z,7.50
2018-08-19T18:54:25.876Z,8.87
2018-08-19T18:56:58.075Z,10.70
2018-08-19T18:59:26.569Z,10.17
2018-08-19T19:01:57.600Z,9.67
2018-08-19T19:04:26.536Z,11.00
2018-08-19T19:06:55.202Z,7.43
2018-08-19T19:09:23.814Z,8.07
2018-08-19T19:11:53.041Z,10.37
2018-08-19T19:14:22.241Z,9.93
2018-08-19T19:16:52.399Z,6.77
2018-08-19T19:19:20.976Z,9.63
2018-08-19T19:21:54.212Z,7.03
2018-08-19T19:24:26.902Z,7.40
2018-08-19T19:26:56.817Z,6.50
2018-08-19T19:29:28.847Z,6.07
2018-08-19T19:31:58.993Z,8.43
2018-08-19T19:34:31.117Z,7.90
2018-08-19T19:37:00.516Z,10.73
2018-08-19T19:39:29.752Z,7.27
2018-08-19T19:42:06.745Z,7.17
2018-08-19T19:44:35.792Z,6.30
2018-08-19T19:47:05.833Z,9.30
2018-08-19T19:49:37.410Z,7.47
2018-08-19T19:52:06.226Z,9.03
2018-08-19T19:54:34.822Z,10.17
2018-08-19T19:57:03.652Z,8.80
2018-08-19T19:59:34.209Z,7.63
2018-08-19T20:02:02.944Z,7.87
2018-08-19T20:04:34.251Z,9.50
2018-08-19T20:07:02.842Z,8.13
2018-08-19T20:09:34.599Z,7.77
2018-08-19T20:12:03.969Z,9.60
2018-08-19T20:14:37.302Z,9.27
2018-08-19T20:17:06.530Z,7.10
2018-08-19T20:19:35.429Z,6.73
2018-08-19T20:22:03.967Z,7.73
2018-08-19T20:24:32.383Z,7.50
2018-08-19T20:27:01.179Z,8.93
2018-08-19T20:29:29.631Z,10.73
2018-08-19T20:31:58.782Z,11.07
2018-08-19T20:34:27.207Z,6.63
2018-08-19T20:36:55.721Z,11.80
2018-08-19T20:39:24.406Z,7.43
2018-08-19T20:41:53.089Z,8.87
2018-08-19T20:44:21.495Z,8.07
2018-08-19T20:46:55.691Z,8.83
2018-08-19T20:49:24.964Z,9.03
2018-08-19T20:51:54.387Z,10.17
2018-08-19T20:54:23.507Z,9.00
2018-08-19T20:56:52.164Z,10.33
2018-08-19T20:59:26.005Z,8.27
2018-08-19T21:01:54.800Z,9.23
2018-08-19T21:04:23.217Z,7.93
2018-08-19T21:06:51.684Z,9.53
2018-08-19T21:09:20.251Z,8.87
2018-08-19T21:11:49.123Z,8.23
2018-08-19T21:14:17.555Z,8.83
2018-08-19T21:16:46.966Z,8.27
2018-08-19T21:19:15.442Z,8.07
2018-08-19T21:21:43.923Z,10.00
2018-08-19T21:24:12.949Z,9.00
2018-08-19T21:26:44.808Z,8.23
2018-08-19T21:29:13.725Z,8.30
2018-08-19T21:31:42.174Z,7.33
2018-08-19T21:34:10.933Z,11.33
2018-08-19T21:36:39.355Z,8.43
2018-08-19T21:39:08.651Z,9.63
2018-08-19T21:41:50.511Z,10.70
2018-08-19T21:44:20.516Z,8.77
2018-08-19T21:46:48.962Z,7.80
2018-08-19T21:49:17.403Z,7.10
2018-08-19T21:51:46.031Z,8.50
